sensor_id;sensor_type;location;lat;lon;timestamp;P1;durP1;ratioP1;P2;durP2;ratioP2
12663;SDS011;6396;58.490;15.528;2023-08-08T00:01:49;2.33;;;1.40;;
12663;SDS011;6396;58.490;15.528;2023-08-08T00:04:15;2.80;;;1.10;;
12663;SDS011;6396;58.490;15.528;2023-08-08T00:06:43;4.07;;;1.43;;
12663;SDS011;6396;58.490;15.528;2023-08-08T00:09:09;2.23;;;1.27;;
12663;SDS011;6396;58.490;15.528;2023-08-08T00:11:36;4.67;;;1.40;;
12663;SDS011;6396;58.490;15.528;2023-08-08T00:14:04;2.90;;;1.50;;
12663;SDS011;6396;58.490;15.528;2023-08-08T00:16:31;3.47;;;1.77;;
12663;SDS011;6396;58.490;15.528;2023-08-08T00:18:58;1.60;;;1.30;;
12663;SDS011;6396;58.490;15.528;2023-08-08T00:21:25;2.67;;;1.60;;
12663;SDS011;6396;58.490;15.528;2023-08-08T00:23:52;2.67;;;1.53;;
12663;SDS011;6396;58.490;15.528;2023-08-08T00:26:18;2.90;;;1.30;;
12663;SDS011;6396;58.490;15.528;2023-08-08T00:28:45;2.17;;;1.27;;
12663;SDS011;6396;58.490;15.528;2023-08-08T00:31:13;4.77;;;1.60;;
12663;SDS011;6396;58.490;15.528;2023-08-08T00:33:42;1.33;;;1.20;;
12663;SDS011;6396;58.490;15.528;2023-08-08T00:36:09;2.07;;;1.27;;
12663;SDS011;6396;58.490;15.528;2023-08-08T00:38:36;1.40;;;1.27;;
12663;SDS011;6396;58.490;15.528;2023-08-08T00:41:03;1.57;;;1.10;;
12663;SDS011;6396;58.490;15.528;2023-08-08T00:43:30;3.37;;;1.37;;
12663;SDS011;6396;58.490;15.528;2023-08-08T00:45:57;1.57;;;1.20;;
12663;SDS011;6396;58.490;15.528;2023-08-08T00:48:25;2.33;;;1.50;;
12663;SDS011;6396;58.490;15.528;2023-08-08T00:50:52;2.03;;;1.33;;
12663;SDS011;6396;58.490;15.528;2023-08-08T00:53:19;2.07;;;1.23;;
12663;SDS011;6396;58.490;15.528;2023-08-08T00:55:51;1.97;;;1.40;;
12663;SDS011;6396;58.490;15.528;2023-08-08T00:58:18;1.30;;;1.20;;
12663;SDS011;6396;58.490;15.528;2023-08-08T01:00:45;2.17;;;1.40;;
12663;SDS011;6396;58.490;15.528;2023-08-08T01:03:11;1.93;;;1.30;;
12663;SDS011;6396;58.490;15.528;2023-08-08T01:05:41;1.47;;;1.30;;
12663;SDS011;6396;58.490;15.528;2023-08-08T01:08:15;1.93;;;1.53;;
12663;SDS011;6396;58.490;15.528;2023-08-08T01:10:45;2.20;;;1.40;;
12663;SDS011;6396;58.490;15.528;2023-08-08T01:13:13;3.60;;;1.60;;
12663;SDS011;6396;58.490;15.528;2023-08-08T01:15:42;1.50;;;1.40;;
12663;SDS011;6396;58.490;15.528;2023-08-08T01:18:11;2.50;;;1.50;;
12663;SDS011;6396;58.490;15.528;2023-08-08T01:20:41;1.60;;;1.17;;
12663;SDS011;6396;58.490;15.528;2023-08-08T01:23:11;1.47;;;1.37;;
12663;SDS011;6396;58.490;15.528;2023-08-08T01:25:42;1.50;;;1.40;;
12663;SDS011;6396;58.490;15.528;2023-08-08T01:28:10;2.03;;;1.50;;
12663;SDS011;6396;58.490;15.528;2023-08-08T01:30:36;2.27;;;1.40;;
12663;SDS011;6396;58.490;15.528;2023-08-08T01:33:04;1.70;;;1.37;;
12663;SDS011;6396;58.490;15.528;2023-08-08T01:35:34;1.77;;;1.50;;
12663;SDS011;6396;58.490;15.528;2023-08-08T01:38:08;1.60;;;1.50;;
12663;SDS011;6396;58.490;15.528;2023-08-08T01:40:38;1.77;;;1.63;;
12663;SDS011;6396;58.490;15.528;2023-08-08T01:43:09;3.33;;;1.57;;
12663;SDS011;6396;58.490;15.528;2023-08-08T01:45:36;1.63;;;1.50;;
12663;SDS011;6396;58.490;15.528;2023-08-08T01:48:08;1.87;;;1.77;;
12663;SDS011;6396;58.490;15.528;2023-08-08T01:50:35;2.00;;;1.80;;
12663;SDS011;6396;58.490;15.528;2023-08-08T01:53:02;2.13;;;1.80;;
12663;SDS011;6396;58.490;15.528;2023-08-08T01:55:29;1.20;;;1.10;;
12663;SDS011;6396;58.490;15.528;2023-08-08T01:57:56;2.67;;;1.30;;
12663;SDS011;6396;58.490;15.528;2023-08-08T02:00:27;2.17;;;1.20;;
12663;SDS011;6396;58.490;15.528;2023-08-08T02:02:56;1.83;;;1.10;;
12663;SDS011;6396;58.490;15.528;2023-08-08T02:05:23;1.53;;;1.20;;
12663;SDS011;6396;58.490;15.528;2023-08-08T02:07:50;1.57;;;1.10;;
12663;SDS011;6396;58.490;15.528;2023-08-08T02:10:17;1.07;;;0.90;;
12663;SDS011;6396;58.490;15.528;2023-08-08T02:12:43;0.90;;;0.90;;
12663;SDS011;6396;58.490;15.528;2023-08-08T02:15:10;0.80;;;0.80;;
12663;SDS011;6396;58.490;15.528;2023-08-08T02:17:38;0.80;;;0.80;;
12663;SDS011;6396;58.490;15.528;2023-08-08T02:20:06;0.90;;;0.90;;
12663;SDS011;6396;58.490;15.528;2023-08-08T02:22:33;1.03;;;0.83;;
12663;SDS011;6396;58.490;15.528;2023-08-08T02:25:00;1.00;;;0.97;;
12663;SDS011;6396;58.490;15.528;2023-08-08T02:27:27;1.20;;;1.10;;
12663;SDS011;6396;58.490;15.528;2023-08-08T02:29:53;1.17;;;1.00;;
12663;SDS011;6396;58.490;15.528;2023-08-08T02:32:22;1.10;;;1.10;;
12663;SDS011;6396;58.490;15.528;2023-08-08T02:34:50;1.03;;;0.90;;
12663;SDS011;6396;58.490;15.528;2023-08-08T02:37:17;2.07;;;0.90;;
12663;SDS011;6396;58.490;15.528;2023-08-08T02:39:44;0.87;;;0.80;;
12663;SDS011;6396;58.490;15.528;2023-08-08T02:42:11;1.50;;;0.97;;
12663;SDS011;6396;58.490;15.528;2023-08-08T02:44:37;2.40;;;0.70;;
12663;SDS011;6396;58.490;15.528;2023-08-08T02:47:04;1.20;;;0.97;;
12663;SDS011;6396;58.490;15.528;2023-08-08T02:49:31;0.77;;;0.70;;
12663;SDS011;6396;58.490;15.528;2023-08-08T02:52:00;0.70;;;0.70;;
12663;SDS011;6396;58.490;15.528;2023-08-08T02:54:27;0.77;;;0.77;;
12663;SDS011;6396;58.490;15.528;2023-08-08T02:56:53;0.90;;;0.90;;
12663;SDS011;6396;58.490;15.528;2023-08-08T02:59:20;0.70;;;0.70;;
12663;SDS011;6396;58.490;15.528;2023-08-08T03:01:47;0.70;;;0.70;;
12663;SDS011;6396;58.490;15.528;2023-08-08T03:04:14;0.80;;;0.80;;
12663;SDS011;6396;58.490;15.528;2023-08-08T03:06:41;1.37;;;0.70;;
12663;SDS011;6396;58.490;15.528;2023-08-08T03:09:09;0.70;;;0.70;;
12663;SDS011;6396;58.490;15.528;2023-08-08T03:11:36;0.67;;;0.67;;
12663;SDS011;6396;58.490;15.528;2023-08-08T03:14:06;2.50;;;1.10;;
12663;SDS011;6396;58.490;15.528;2023-08-08T03:16:33;1.13;;;0.80;;
12663;SDS011;6396;58.490;15.528;2023-08-08T03:19:00;0.60;;;0.60;;
12663;SDS011;6396;58.490;15.528;2023-08-08T03:21:26;1.47;;;0.80;;
12663;SDS011;6396;58.490;15.528;2023-08-08T03:23:53;1.00;;;0.90;;
12663;SDS011;6396;58.490;15.528;2023-08-08T03:26:21;1.43;;;0.80;;
12663;SDS011;6396;58.490;15.528;2023-08-08T03:28:48;1.73;;;1.10;;
12663;SDS011;6396;58.490;15.528;2023-08-08T03:31:18;1.73;;;1.13;;
12663;SDS011;6396;58.490;15.528;2023-08-08T03:33:45;1.50;;;1.40;;
12663;SDS011;6396;58.490;15.528;2023-08-08T03:36:12;1.60;;;1.50;;
12663;SDS011;6396;58.490;15.528;2023-08-08T03:38:39;1.70;;;1.60;;
12663;SDS011;6396;58.490;15.528;2023-08-08T03:41:09;2.27;;;1.70;;
12663;SDS011;6396;58.490;15.528;2023-08-08T03:43:37;2.20;;;2.00;;
12663;SDS011;6396;58.490;15.528;2023-08-08T03:46:04;2.33;;;2.13;;
12663;SDS011;6396;58.490;15.528;2023-08-08T03:48:31;3.17;;;2.37;;
12663;SDS011;6396;58.490;15.528;2023-08-08T03:50:58;2.87;;;2.67;;
12663;SDS011;6396;58.490;15.528;2023-08-08T03:53:25;3.63;;;3.33;;
12663;SDS011;6396;58.490;15.528;2023-08-08T03:55:52;5.43;;;3.10;;
12663;SDS011;6396;58.490;15.528;2023-08-08T03:58:18;3.80;;;3.40;;
12663;SDS011;6396;58.490;15.528;2023-08-08T04:00:47;4.10;;;3.47;;
12663;SDS011;6396;58.490;15.528;2023-08-08T04:03:14;4.80;;;3.80;;
12663;SDS011;6396;58.490;15.528;2023-08-08T04:05:43;4.77;;;3.90;;
12663;SDS011;6396;58.490;15.528;2023-08-08T04:08:12;3.60;;;3.30;;
12663;SDS011;6396;58.490;15.528;2023-08-08T04:10:39;4.17;;;3.20;;
12663;SDS011;6396;58.490;15.528;2023-08-08T04:13:06;3.87;;;3.30;;
12663;SDS011;6396;58.490;15.528;2023-08-08T04:15:33;4.77;;;3.80;;
12663;SDS011;6396;58.490;15.528;2023-08-08T04:18:01;4.33;;;3.57;;
12663;SDS011;6396;58.490;15.528;2023-08-08T04:20:28;5.10;;;3.50;;
12663;SDS011;6396;58.490;15.528;2023-08-08T04:22:55;4.43;;;2.60;;
12663;SDS011;6396;58.490;15.528;2023-08-08T04:25:22;4.40;;;2.93;;
12663;SDS011;6396;58.490;15.528;2023-08-08T04:27:49;5.80;;;3.20;;
12663;SDS011;6396;58.490;15.528;2023-08-08T04:30:16;3.37;;;3.07;;
12663;SDS011;6396;58.490;15.528;2023-08-08T04:32:43;4.43;;;3.20;;
12663;SDS011;6396;58.490;15.528;2023-08-08T04:35:11;5.47;;;3.10;;
12663;SDS011;6396;58.490;15.528;2023-08-08T04:37:38;3.47;;;3.13;;
12663;SDS011;6396;58.490;15.528;2023-08-08T04:40:05;3.90;;;3.50;;
12663;SDS011;6396;58.490;15.528;2023-08-08T04:42:34;5.00;;;2.97;;
12663;SDS011;6396;58.490;15.528;2023-08-08T04:45:00;3.80;;;3.07;;
12663;SDS011;6396;58.490;15.528;2023-08-08T04:47:27;3.97;;;3.30;;
12663;SDS011;6396;58.490;15.528;2023-08-08T04:49:54;3.80;;;3.10;;
12663;SDS011;6396;58.490;15.528;2023-08-08T04:52:22;5.80;;;3.03;;
12663;SDS011;6396;58.490;15.528;2023-08-08T04:54:49;3.00;;;2.80;;
12663;SDS011;6396;58.490;15.528;2023-08-08T04:57:16;3.87;;;3.47;;
12663;SDS011;6396;58.490;15.528;2023-08-08T04:59:43;4.23;;;3.13;;
12663;SDS011;6396;58.490;15.528;2023-08-08T05:02:09;5.33;;;3.27;;
12663;SDS011;6396;58.490;15.528;2023-08-08T05:04:36;4.60;;;3.37;;
12663;SDS011;6396;58.490;15.528;2023-08-08T05:07:03;3.63;;;2.90;;
12663;SDS011;6396;58.490;15.528;2023-08-08T05:09:32;3.67;;;3.13;;
12663;SDS011;6396;58.490;15.528;2023-08-08T05:11:59;6.17;;;3.10;;
12663;SDS011;6396;58.490;15.528;2023-08-08T05:14:26;4.00;;;2.67;;
12663;SDS011;6396;58.490;15.528;2023-08-08T05:16:53;4.53;;;2.30;;
12663;SDS011;6396;58.490;15.528;2023-08-08T05:19:19;2.17;;;2.07;;
12663;SDS011;6396;58.490;15.528;2023-08-08T05:21:46;2.00;;;1.90;;
12663;SDS011;6396;58.490;15.528;2023-08-08T05:24:13;2.07;;;1.87;;
12663;SDS011;6396;58.490;15.528;2023-08-08T05:26:41;4.47;;;2.00;;
12663;SDS011;6396;58.490;15.528;2023-08-08T05:29:08;2.40;;;1.60;;
12663;SDS011;6396;58.490;15.528;2023-08-08T05:31:35;2.53;;;1.60;;
12663;SDS011;6396;58.490;15.528;2023-08-08T05:34:01;1.43;;;1.10;;
12663;SDS011;6396;58.490;15.528;2023-08-08T05:36:28;4.13;;;1.10;;
12663;SDS011;6396;58.490;15.528;2023-08-08T05:38:55;1.10;;;1.00;;
12663;SDS011;6396;58.490;15.528;2023-08-08T05:41:22;3.70;;;1.23;;
12663;SDS011;6396;58.490;15.528;2023-08-08T05:43:50;1.50;;;0.90;;
12663;SDS011;6396;58.490;15.528;2023-08-08T05:46:17;0.87;;;0.87;;
12663;SDS011;6396;58.490;15.528;2023-08-08T05:48:44;2.23;;;1.00;;
12663;SDS011;6396;58.490;15.528;2023-08-08T05:51:11;1.37;;;0.73;;
12663;SDS011;6396;58.490;15.528;2023-08-08T05:53:38;1.83;;;0.60;;
12663;SDS011;6396;58.490;15.528;2023-08-08T05:56:05;1.23;;;0.67;;
12663;SDS011;6396;58.490;15.528;2023-08-08T05:58:32;1.60;;;1.00;;
12663;SDS011;6396;58.490;15.528;2023-08-08T06:01:00;0.70;;;0.70;;
12663;SDS011;6396;58.490;15.528;2023-08-08T06:03:27;1.23;;;0.90;;
12663;SDS011;6396;58.490;15.528;2023-08-08T06:05:54;1.10;;;0.80;;
12663;SDS011;6396;58.490;15.528;2023-08-08T06:08:21;1.03;;;0.70;;
12663;SDS011;6396;58.490;15.528;2023-08-08T06:10:48;0.70;;;0.70;;
12663;SDS011;6396;58.490;15.528;2023-08-08T06:13:15;1.07;;;0.80;;
12663;SDS011;6396;58.490;15.528;2023-08-08T06:15:41;0.83;;;0.43;;
12663;SDS011;6396;58.490;15.528;2023-08-08T06:18:13;1.00;;;0.60;;
12663;SDS011;6396;58.490;15.528;2023-08-08T06:20:40;0.67;;;0.67;;
12663;SDS011;6396;58.490;15.528;2023-08-08T06:23:07;0.60;;;0.60;;
12663;SDS011;6396;58.490;15.528;2023-08-08T06:25:34;0.60;;;0.60;;
12663;SDS011;6396;58.490;15.528;2023-08-08T06:28:00;1.07;;;0.70;;
12663;SDS011;6396;58.490;15.528;2023-08-08T06:30:27;0.93;;;0.60;;
12663;SDS011;6396;58.490;15.528;2023-08-08T06:32:54;3.37;;;0.70;;
12663;SDS011;6396;58.490;15.528;2023-08-08T06:35:22;0.60;;;0.60;;
12663;SDS011;6396;58.490;15.528;2023-08-08T06:37:49;0.77;;;0.77;;
12663;SDS011;6396;58.490;15.528;2023-08-08T06:40:16;0.63;;;0.63;;
12663;SDS011;6396;58.490;15.528;2023-08-08T06:42:43;0.60;;;0.60;;
12663;SDS011;6396;58.490;15.528;2023-08-08T06:45:11;0.80;;;0.60;;
12663;SDS011;6396;58.490;15.528;2023-08-08T06:47:42;0.63;;;0.63;;
12663;SDS011;6396;58.490;15.528;2023-08-08T06:50:09;0.60;;;0.60;;
12663;SDS011;6396;58.490;15.528;2023-08-08T06:52:37;0.77;;;0.70;;
12663;SDS011;6396;58.490;15.528;2023-08-08T06:55:05;1.13;;;0.70;;
12663;SDS011;6396;58.490;15.528;2023-08-08T06:57:33;0.97;;;0.80;;
12663;SDS011;6396;58.490;15.528;2023-08-08T07:00:10;1.23;;;0.60;;
12663;SDS011;6396;58.490;15.528;2023-08-08T07:03:15;0.97;;;0.60;;
12663;SDS011;6396;58.490;15.528;2023-08-08T07:05:42;0.60;;;0.60;;
12663;SDS011;6396;58.490;15.528;2023-08-08T07:08:11;0.60;;;0.60;;
12663;SDS011;6396;58.490;15.528;2023-08-08T07:10:38;0.50;;;0.50;;
12663;SDS011;6396;58.490;15.528;2023-08-08T07:13:06;0.60;;;0.60;;
12663;SDS011;6396;58.490;15.528;2023-08-08T07:15:33;1.17;;;0.60;;
12663;SDS011;6396;58.490;15.528;2023-08-08T07:17:59;0.60;;;0.60;;
12663;SDS011;6396;58.490;15.528;2023-08-08T07:20:26;0.93;;;0.60;;
12663;SDS011;6396;58.490;15.528;2023-08-08T07:22:54;0.50;;;0.50;;
12663;SDS011;6396;58.490;15.528;2023-08-08T07:25:22;0.70;;;0.70;;
12663;SDS011;6396;58.490;15.528;2023-08-08T07:27:49;1.53;;;0.70;;
12663;SDS011;6396;58.490;15.528;2023-08-08T07:30:16;0.70;;;0.70;;
12663;SDS011;6396;58.490;15.528;2023-08-08T07:32:42;0.60;;;0.60;;
12663;SDS011;6396;58.490;15.528;2023-08-08T07:35:09;0.60;;;0.60;;
12663;SDS011;6396;58.490;15.528;2023-08-08T07:37:36;0.70;;;0.70;;
12663;SDS011;6396;58.490;15.528;2023-08-08T07:40:03;0.70;;;0.70;;
12663;SDS011;6396;58.490;15.528;2023-08-08T07:42:41;0.60;;;0.60;;
12663;SDS011;6396;58.490;15.528;2023-08-08T07:45:08;0.67;;;0.67;;
12663;SDS011;6396;58.490;15.528;2023-08-08T07:47:35;0.80;;;0.80;;
12663;SDS011;6396;58.490;15.528;2023-08-08T07:50:02;0.60;;;0.60;;
12663;SDS011;6396;58.490;15.528;2023-08-08T07:52:29;0.70;;;0.70;;
12663;SDS011;6396;58.490;15.528;2023-08-08T07:54:56;1.30;;;0.70;;
12663;SDS011;6396;58.490;15.528;2023-08-08T07:57:24;0.60;;;0.60;;
12663;SDS011;6396;58.490;15.528;2023-08-08T07:59:54;0.57;;;0.57;;
12663;SDS011;6396;58.490;15.528;2023-08-08T08:02:20;0.60;;;0.60;;
12663;SDS011;6396;58.490;15.528;2023-08-08T08:04:47;0.50;;;0.50;;
12663;SDS011;6396;58.490;15.528;2023-08-08T08:07:17;0.70;;;0.70;;
12663;SDS011;6396;58.490;15.528;2023-08-08T08:09:57;0.60;;;0.60;;
12663;SDS011;6396;58.490;15.528;2023-08-08T08:12:24;1.40;;;0.70;;
12663;SDS011;6396;58.490;15.528;2023-08-08T08:14:51;0.70;;;0.70;;
12663;SDS011;6396;58.490;15.528;2023-08-08T08:17:19;0.83;;;0.80;;
12663;SDS011;6396;58.490;15.528;2023-08-08T08:19:46;1.73;;;0.60;;
12663;SDS011;6396;58.490;15.528;2023-08-08T08:22:13;1.00;;;0.70;;
12663;SDS011;6396;58.490;15.528;2023-08-08T08:24:40;1.60;;;0.80;;
12663;SDS011;6396;58.490;15.528;2023-08-08T08:27:07;1.97;;;0.80;;
12663;SDS011;6396;58.490;15.528;2023-08-08T08:29:33;0.80;;;0.70;;
12663;SDS011;6396;58.490;15.528;2023-08-08T08:32:00;1.37;;;0.77;;
12663;SDS011;6396;58.490;15.528;2023-08-08T08:34:28;0.67;;;0.67;;
12663;SDS011;6396;58.490;15.528;2023-08-08T08:36:55;0.70;;;0.70;;
12663;SDS011;6396;58.490;15.528;2023-08-08T08:39:22;0.70;;;0.60;;
12663;SDS011;6396;58.490;15.528;2023-08-08T08:41:50;2.10;;;0.83;;
12663;SDS011;6396;58.490;15.528;2023-08-08T08:44:26;0.80;;;0.80;;
12663;SDS011;6396;58.490;15.528;2023-08-08T08:46:56;1.37;;;0.90;;
12663;SDS011;6396;58.490;15.528;2023-08-08T08:49:26;0.80;;;0.80;;
12663;SDS011;6396;58.490;15.528;2023-08-08T08:51:57;2.30;;;0.80;;
12663;SDS011;6396;58.490;15.528;2023-08-08T08:54:26;1.40;;;0.80;;
12663;SDS011;6396;58.490;15.528;2023-08-08T08:56:53;2.23;;;0.77;;
12663;SDS011;6396;58.490;15.528;2023-08-08T08:59:22;0.77;;;0.77;;
12663;SDS011;6396;58.490;15.528;2023-08-08T09:01:49;1.63;;;0.80;;
12663;SDS011;6396;58.490;15.528;2023-08-08T09:04:16;0.70;;;0.70;;
12663;SDS011;6396;58.490;15.528;2023-08-08T09:06:47;1.03;;;0.90;;
12663;SDS011;6396;58.490;15.528;2023-08-08T09:09:15;2.70;;;0.90;;
12663;SDS011;6396;58.490;15.528;2023-08-08T09:11:42;1.27;;;0.60;;
12663;SDS011;6396;58.490;15.528;2023-08-08T09:14:14;0.93;;;0.70;;
12663;SDS011;6396;58.490;15.528;2023-08-08T09:16:43;1.67;;;0.70;;
12663;SDS011;6396;58.490;15.528;2023-08-08T09:19:10;0.80;;;0.80;;
12663;SDS011;6396;58.490;15.528;2023-08-08T09:21:37;0.77;;;0.77;;
12663;SDS011;6396;58.490;15.528;2023-08-08T09:24:06;0.70;;;0.70;;
12663;SDS011;6396;58.490;15.528;2023-08-08T09:26:33;0.60;;;0.60;;
12663;SDS011;6396;58.490;15.528;2023-08-08T09:29:01;0.80;;;0.80;;
12663;SDS011;6396;58.490;15.528;2023-08-08T09:31:28;0.70;;;0.70;;
12663;SDS011;6396;58.490;15.528;2023-08-08T09:33:55;0.70;;;0.70;;
12663;SDS011;6396;58.490;15.528;2023-08-08T09:36:23;0.70;;;0.70;;
12663;SDS011;6396;58.490;15.528;2023-08-08T09:38:51;1.40;;;0.80;;
12663;SDS011;6396;58.490;15.528;2023-08-08T09:41:20;2.00;;;0.90;;
12663;SDS011;6396;58.490;15.528;2023-08-08T09:43:47;1.40;;;0.97;;
12663;SDS011;6396;58.490;15.528;2023-08-08T09:46:14;1.13;;;1.03;;
12663;SDS011;6396;58.490;15.528;2023-08-08T09:48:42;1.63;;;0.90;;
12663;SDS011;6396;58.490;15.528;2023-08-08T09:51:09;1.23;;;1.00;;
12663;SDS011;6396;58.490;15.528;2023-08-08T09:53:36;1.20;;;0.90;;
12663;SDS011;6396;58.490;15.528;2023-08-08T09:56:03;0.73;;;0.73;;
12663;SDS011;6396;58.490;15.528;2023-08-08T09:58:44;0.83;;;0.83;;
12663;SDS011;6396;58.490;15.528;2023-08-08T10:01:19;1.03;;;1.00;;
12663;SDS011;6396;58.490;15.528;2023-08-08T10:03:47;1.03;;;0.93;;
12663;SDS011;6396;58.490;15.528;2023-08-08T10:06:17;3.00;;;1.67;;
12663;SDS011;6396;58.490;15.528;2023-08-08T10:08:47;1.47;;;0.93;;
12663;SDS011;6396;58.490;15.528;2023-08-08T10:11:16;1.30;;;1.07;;
12663;SDS011;6396;58.490;15.528;2023-08-08T10:13:48;2.10;;;1.03;;
12663;SDS011;6396;58.490;15.528;2023-08-08T10:16:16;0.90;;;0.90;;
12663;SDS011;6396;58.490;15.528;2023-08-08T10:18:44;1.30;;;0.90;;
12663;SDS011;6396;58.490;15.528;2023-08-08T10:21:11;1.30;;;1.20;;
12663;SDS011;6396;58.490;15.528;2023-08-08T10:23:39;1.40;;;1.20;;
12663;SDS011;6396;58.490;15.528;2023-08-08T10:26:16;1.83;;;1.20;;
12663;SDS011;6396;58.490;15.528;2023-08-08T10:28:54;1.27;;;1.17;;
12663;SDS011;6396;58.490;15.528;2023-08-08T10:31:22;1.40;;;1.10;;
12663;SDS011;6396;58.490;15.528;2023-08-08T10:33:50;1.67;;;1.13;;
12663;SDS011;6396;58.490;15.528;2023-08-08T10:36:43;2.10;;;1.33;;
12663;SDS011;6396;58.490;15.528;2023-08-08T10:39:14;1.93;;;1.67;;
12663;SDS011;6396;58.490;15.528;2023-08-08T10:41:47;1.50;;;1.40;;
12663;SDS011;6396;58.490;15.528;2023-08-08T10:44:24;2.47;;;1.60;;
12663;SDS011;6396;58.490;15.528;2023-08-08T10:46:52;1.30;;;1.20;;
12663;SDS011;6396;58.490;15.528;2023-08-08T10:49:20;1.27;;;1.10;;
12663;SDS011;6396;58.490;15.528;2023-08-08T10:51:49;1.20;;;1.10;;
12663;SDS011;6396;58.490;15.528;2023-08-08T10:54:17;1.50;;;1.00;;
12663;SDS011;6396;58.490;15.528;2023-08-08T10:56:50;1.10;;;1.00;;
12663;SDS011;6396;58.490;15.528;2023-08-08T10:59:18;3.33;;;1.13;;
12663;SDS011;6396;58.490;15.528;2023-08-08T11:01:48;1.50;;;1.23;;
12663;SDS011;6396;58.490;15.528;2023-08-08T11:04:17;1.23;;;1.17;;
12663;SDS011;6396;58.490;15.528;2023-08-08T11:06:45;2.37;;;1.30;;
12663;SDS011;6396;58.490;15.528;2023-08-08T11:09:15;1.20;;;1.10;;
12663;SDS011;6396;58.490;15.528;2023-08-08T11:11:42;1.30;;;1.20;;
12663;SDS011;6396;58.490;15.528;2023-08-08T11:14:11;1.53;;;1.20;;
12663;SDS011;6396;58.490;15.528;2023-08-08T11:16:39;1.30;;;1.20;;
12663;SDS011;6396;58.490;15.528;2023-08-08T11:19:08;1.00;;;1.00;;
12663;SDS011;6396;58.490;15.528;2023-08-08T11:21:35;1.73;;;1.20;;
12663;SDS011;6396;58.490;15.528;2023-08-08T11:24:04;1.40;;;1.23;;
12663;SDS011;6396;58.490;15.528;2023-08-08T11:26:32;2.87;;;1.50;;
12663;SDS011;6396;58.490;15.528;2023-08-08T11:29:00;1.80;;;1.50;;
12663;SDS011;6396;58.490;15.528;2023-08-08T11:31:28;2.30;;;1.67;;
12663;SDS011;6396;58.490;15.528;2023-08-08T11:34:03;1.30;;;1.20;;
12663;SDS011;6396;58.490;15.528;2023-08-08T11:36:32;1.30;;;1.20;;
12663;SDS011;6396;58.490;15.528;2023-08-08T11:39:01;1.37;;;1.10;;
12663;SDS011;6396;58.490;15.528;2023-08-08T11:41:33;1.10;;;1.00;;
12663;SDS011;6396;58.490;15.528;2023-08-08T11:44:01;3.73;;;1.10;;
12663;SDS011;6396;58.490;15.528;2023-08-08T11:46:29;1.13;;;0.97;;
12663;SDS011;6396;58.490;15.528;2023-08-08T11:49:01;1.07;;;1.00;;
12663;SDS011;6396;58.490;15.528;2023-08-08T11:51:29;1.60;;;0.97;;
12663;SDS011;6396;58.490;15.528;2023-08-08T11:53:57;0.90;;;0.90;;
12663;SDS011;6396;58.490;15.528;2023-08-08T11:56:25;1.70;;;1.00;;
12663;SDS011;6396;58.490;15.528;2023-08-08T11:58:54;1.77;;;0.90;;
12663;SDS011;6396;58.490;15.528;2023-08-08T12:01:22;1.97;;;1.00;;
12663;SDS011;6396;58.490;15.528;2023-08-08T12:03:49;2.20;;;1.17;;
12663;SDS011;6396;58.490;15.528;2023-08-08T12:06:16;1.00;;;1.00;;
12663;SDS011;6396;58.490;15.528;2023-08-08T12:08:44;1.17;;;1.07;;
12663;SDS011;6396;58.490;15.528;2023-08-08T12:11:14;0.80;;;0.80;;
12663;SDS011;6396;58.490;15.528;2023-08-08T12:13:42;0.80;;;0.80;;
12663;SDS011;6396;58.490;15.528;2023-08-08T12:16:11;1.00;;;0.90;;
12663;SDS011;6396;58.490;15.528;2023-08-08T12:18:39;1.13;;;0.80;;
12663;SDS011;6396;58.490;15.528;2023-08-08T12:21:07;0.93;;;0.90;;
12663;SDS011;6396;58.490;15.528;2023-08-08T12:23:35;1.83;;;1.13;;
12663;SDS011;6396;58.490;15.528;2023-08-08T12:26:03;0.80;;;0.80;;
12663;SDS011;6396;58.490;15.528;2023-08-08T12:28:32;1.23;;;0.90;;
12663;SDS011;6396;58.490;15.528;2023-08-08T12:31:00;0.80;;;0.80;;
12663;SDS011;6396;58.490;15.528;2023-08-08T12:33:27;0.87;;;0.80;;
12663;SDS011;6396;58.490;15.528;2023-08-08T12:35:57;1.43;;;0.90;;
12663;SDS011;6396;58.490;15.528;2023-08-08T12:38:36;1.53;;;0.80;;
12663;SDS011;6396;58.490;15.528;2023-08-08T12:41:02;0.80;;;0.80;;
12663;SDS011;6396;58.490;15.528;2023-08-08T12:43:29;1.93;;;0.80;;
12663;SDS011;6396;58.490;15.528;2023-08-08T12:45:58;0.83;;;0.80;;
12663;SDS011;6396;58.490;15.528;2023-08-08T12:48:24;0.93;;;0.93;;
12663;SDS011;6396;58.490;15.528;2023-08-08T12:50:51;2.37;;;0.90;;
12663;SDS011;6396;58.490;15.528;2023-08-08T12:53:18;1.17;;;0.90;;
12663;SDS011;6396;58.490;15.528;2023-08-08T12:55:45;2.13;;;1.00;;
12663;SDS011;6396;58.490;15.528;2023-08-08T12:58:12;2.27;;;1.00;;
12663;SDS011;6396;58.490;15.528;2023-08-08T13:00:38;1.03;;;0.87;;
12663;SDS011;6396;58.490;15.528;2023-08-08T13:03:07;1.80;;;0.80;;
12663;SDS011;6396;58.490;15.528;2023-08-08T13:05:34;0.70;;;0.70;;
12663;SDS011;6396;58.490;15.528;2023-08-08T13:08:02;0.80;;;0.80;;
12663;SDS011;6396;58.490;15.528;2023-08-08T13:10:28;0.80;;;0.80;;
12663;SDS011;6396;58.490;15.528;2023-08-08T13:12:55;0.90;;;0.90;;
12663;SDS011;6396;58.490;15.528;2023-08-08T13:15:22;2.10;;;1.30;;
12663;SDS011;6396;58.490;15.528;2023-08-08T13:17:49;0.90;;;0.90;;
12663;SDS011;6396;58.490;15.528;2023-08-08T13:20:17;1.00;;;0.90;;
12663;SDS011;6396;58.490;15.528;2023-08-08T13:22:44;2.40;;;0.70;;
12663;SDS011;6396;58.490;15.528;2023-08-08T13:25:11;0.80;;;0.80;;
12663;SDS011;6396;58.490;15.528;2023-08-08T13:27:38;1.07;;;0.93;;
12663;SDS011;6396;58.490;15.528;2023-08-08T13:30:05;0.80;;;0.80;;
12663;SDS011;6396;58.490;15.528;2023-08-08T13:32:32;0.60;;;0.60;;
12663;SDS011;6396;58.490;15.528;2023-08-08T13:34:59;0.50;;;0.50;;
12663;SDS011;6396;58.490;15.528;2023-08-08T13:37:27;0.60;;;0.60;;
12663;SDS011;6396;58.490;15.528;2023-08-08T13:39:54;2.63;;;0.70;;
12663;SDS011;6396;58.490;15.528;2023-08-08T13:42:21;0.77;;;0.77;;
12663;SDS011;6396;58.490;15.528;2023-08-08T13:44:48;1.40;;;0.70;;
12663;SDS011;6396;58.490;15.528;2023-08-08T13:47:15;1.80;;;0.73;;
12663;SDS011;6396;58.490;15.528;2023-08-08T13:49:41;1.20;;;0.67;;
12663;SDS011;6396;58.490;15.528;2023-08-08T13:52:08;2.77;;;0.60;;
12663;SDS011;6396;58.490;15.528;2023-08-08T13:54:37;0.73;;;0.70;;
12663;SDS011;6396;58.490;15.528;2023-08-08T13:57:03;2.00;;;0.90;;
12663;SDS011;6396;58.490;15.528;2023-08-08T13:59:30;0.63;;;0.60;;
12663;SDS011;6396;58.490;15.528;2023-08-08T14:01:58;0.97;;;0.87;;
12663;SDS011;6396;58.490;15.528;2023-08-08T14:04:25;0.90;;;0.80;;
12663;SDS011;6396;58.490;15.528;2023-08-08T14:06:51;1.47;;;0.80;;
12663;SDS011;6396;58.490;15.528;2023-08-08T14:09:18;1.10;;;0.80;;
12663;SDS011;6396;58.490;15.528;2023-08-08T14:11:46;0.97;;;0.50;;
12663;SDS011;6396;58.490;15.528;2023-08-08T14:14:13;0.67;;;0.67;;
12663;SDS011;6396;58.490;15.528;2023-08-08T14:16:40;2.10;;;0.60;;
12663;SDS011;6396;58.490;15.528;2023-08-08T14:19:07;0.63;;;0.63;;
12663;SDS011;6396;58.490;15.528;2023-08-08T14:21:36;0.80;;;0.80;;
12663;SDS011;6396;58.490;15.528;2023-08-08T14:24:37;0.80;;;0.80;;
12663;SDS011;6396;58.490;15.528;2023-08-08T14:27:29;1.10;;;0.90;;
12663;SDS011;6396;58.490;15.528;2023-08-08T14:30:11;1.53;;;1.00;;
12663;SDS011;6396;58.490;15.528;2023-08-08T14:32:38;1.50;;;0.77;;
12663;SDS011;6396;58.490;15.528;2023-08-08T14:35:06;2.67;;;0.90;;
12663;SDS011;6396;58.490;15.528;2023-08-08T14:37:33;0.80;;;0.70;;
12663;SDS011;6396;58.490;15.528;2023-08-08T14:40:01;2.17;;;0.80;;
12663;SDS011;6396;58.490;15.528;2023-08-08T14:42:30;0.63;;;0.60;;
12663;SDS011;6396;58.490;15.528;2023-08-08T14:44:56;0.60;;;0.60;;
12663;SDS011;6396;58.490;15.528;2023-08-08T14:47:23;0.60;;;0.60;;
12663;SDS011;6396;58.490;15.528;2023-08-08T14:49:50;0.90;;;0.70;;
12663;SDS011;6396;58.490;15.528;2023-08-08T14:52:17;1.40;;;0.83;;
12663;SDS011;6396;58.490;15.528;2023-08-08T14:54:44;0.77;;;0.70;;